Wetterverlauf

Letzte Wetterlage 23.07.2014 07:19
Wetterdiagramm
Tabellarische Darstellung
Datum Temperatur Windchill Feuchte Luftdruck Windrichtung Windstärke Niederschlag
23.07.2014 07:19 16,2 °C 16,2 °C 86 % -- 0.0 0,00 mm
23.07.2014 07:04 16,3 °C 16,3 °C 86 % -- 0.0 0,00 mm
23.07.2014 06:49 16,2 °C 16,2 °C 86 % -- 0.0 0,00 mm
23.07.2014 06:34 16,1 °C 16,1 °C 86 % -- 0.0 0,00 mm
23.07.2014 06:19 16,0 °C 16,0 °C 86 % -- 0.0 0,00 mm
23.07.2014 06:04 15,9 °C 15,9 °C 86 % -- 0.0 0,00 mm
23.07.2014 05:49 15,9 °C 15,9 °C 86 % -- 0.0 0,00 mm
23.07.2014 05:34 16,0 °C 16,0 °C 86 % -- 0.0 0,00 mm
23.07.2014 05:19 16,2 °C 16,2 °C 86 % -- 0.0 0,00 mm
23.07.2014 05:04 16,2 °C 16,2 °C 86 % -- 0.0 0,00 mm
23.07.2014 04:49 16,4 °C 16,4 °C 86 % -- 0.0 0,00 mm
23.07.2014 04:34 16,6 °C 16,6 °C 86 % -- 0.0 0,00 mm
23.07.2014 04:19 16,6 °C 16,6 °C 86 % -- 0.0 0,00 mm
23.07.2014 04:04 16,6 °C 16,6 °C 86 % -- 0.0 0,00 mm
23.07.2014 03:49 16,6 °C 16,6 °C 86 % -- 0.0 0,00 mm
23.07.2014 03:34 16,7 °C 16,7 °C 86 % -- 0.0 0,00 mm
23.07.2014 03:19 16,8 °C 16,8 °C 86 % -- 0.0 0,00 mm
23.07.2014 03:04 17,0 °C 17,0 °C 86 % -- 0.0 0,00 mm
23.07.2014 02:49 17,1 °C 17,1 °C 86 % -- 0.0 0,00 mm
23.07.2014 02:34 17,2 °C 17,2 °C 86 % -- 0.0 0,00 mm
23.07.2014 02:19 17,3 °C 17,3 °C 86 % -- 0.0 0,00 mm
23.07.2014 02:04 17,4 °C 17,4 °C 86 % -- 0.0 0,00 mm
23.07.2014 01:49 17,1 °C 17,1 °C 86 % -- 0.0 0,00 mm
23.07.2014 01:34 17,0 °C 17,0 °C 86 % -- 0.0 0,00 mm
23.07.2014 01:19 17,1 °C 17,1 °C 85 % -- 0.0 0,00 mm
Empfehlen Sie wetter.com
| Mehr
Neue Wetterwarnung

Neue Niederschlagsmeldung
Neue Meldung
Regen Liveticker
    sehr starker Regen/Gewitter
    starker Regen/Gewitter
    mäßiger bis starker Regen
    mäßiger Regen
    leichter bis mäßiger Regen
    kein Regen